Time;durP1;ratioP1;P1;durP2;ratioP2;P2;SDS_P1;SDS_P2;PMS_P1;PMS_P2;Temp;Humidity;BMP_temperature;BMP_pressure;BME280_temperature;BME280_humidity;BME280_pressure;Samples;Min_cycle;Max_cycle;Signal;HPM_P1;HPM_P2
2021/12/25 00:00:35;;;;;;;10.55;8.90;;;10.40;99.90;;;;;;5073961;28;20225;-69
2021/12/25 00:03:02;;;;;;;9.23;7.95;;;10.50;99.90;;;;;;5074013;28;20222;-68
2021/12/25 00:05:29;;;;;;;10.60;8.60;;;10.50;99.90;;;;;;5074291;28;20290;-68
2021/12/25 00:07:56;;;;;;;10.32;8.38;;;10.50;99.90;;;;;;5073946;28;20202;-67
2021/12/25 00:10:23;;;;;;;8.40;7.50;;;10.60;99.90;;;;;;5073796;28;20319;-68
2021/12/25 00:12:53;;;;;;;9.27;8.32;;;10.60;99.90;;;;;;5073445;28;20211;-68
2021/12/25 00:15:20;;;;;;;8.55;7.68;;;10.70;99.90;;;;;;5072695;28;20751;-68
2021/12/25 00:17:47;;;;;;;9.02;7.75;;;10.60;99.90;;;;;;5073562;28;20740;-67
2021/12/25 00:20:14;;;;;;;8.23;7.35;;;10.70;99.90;;;;;;5073804;28;20268;-68
2021/12/25 00:22:41;;;;;;;8.48;7.57;;;10.70;99.90;;;;;;5073479;28;20270;-68
2021/12/25 00:25:08;;;;;;;8.40;7.45;;;10.70;99.90;;;;;;5073159;28;20317;-68
2021/12/25 00:27:53;;;;;;;8.43;7.57;;;10.70;99.90;;;;;;5073483;28;20305;-68
2021/12/25 00:30:32;;;;;;;7.85;6.57;;;10.70;99.90;;;;;;5073316;28;20206;-67
2021/12/25 00:33:03;;;;;;;8.73;7.93;;;10.70;99.90;;;;;;5073277;28;20203;-68
2021/12/25 00:35:30;;;;;;;7.57;6.88;;;10.70;99.90;;;;;;5073804;28;20309;-69
2021/12/25 00:37:57;;;;;;;8.10;7.25;;;10.70;99.90;;;;;;5073258;28;20657;-68
2021/12/25 00:40:24;;;;;;;8.68;7.75;;;10.50;99.90;;;;;;5073021;28;20225;-69
2021/12/25 00:42:51;;;;;;;9.00;8.10;;;10.50;99.90;;;;;;5073429;28;20223;-69
2021/12/25 00:45:18;;;;;;;10.20;9.00;;;10.50;99.90;;;;;;5073112;28;20226;-67
2021/12/25 00:47:46;;;;;;;10.82;8.93;;;10.50;99.90;;;;;;5072974;28;20209;-67
2021/12/25 00:50:13;;;;;;;11.88;9.45;;;10.50;99.90;;;;;;5073549;28;20281;-68
2021/12/25 00:52:40;;;;;;;10.18;8.90;;;10.30;99.90;;;;;;5074164;28;20289;-68
2021/12/25 00:55:08;;;;;;;10.00;8.70;;;10.30;99.90;;;;;;5074016;28;20312;-68
2021/12/25 00:57:38;;;;;;;10.15;8.88;;;10.30;99.90;;;;;;5074429;28;20260;-68
2021/12/25 01:00:10;;;;;;;9.98;8.05;;;10.30;99.90;;;;;;5074147;28;20231;-68
2021/12/25 01:02:40;;;;;;;9.40;8.50;;;10.40;99.90;;;;;;5074081;28;20222;-68
2021/12/25 01:05:10;;;;;;;10.55;7.85;;;10.50;99.90;;;;;;5073785;28;20223;-68
2021/12/25 01:07:37;;;;;;;8.95;8.05;;;10.50;99.90;;;;;;5074226;28;20217;-68
2021/12/25 01:10:08;;;;;;;9.70;8.20;;;10.60;99.90;;;;;;5074121;28;20289;-68
2021/12/25 01:12:48;;;;;;;10.68;8.30;;;10.60;99.90;;;;;;5074065;28;20205;-68
2021/12/25 01:15:17;;;;;;;9.05;8.10;;;10.60;99.90;;;;;;5073580;28;20783;-69
2021/12/25 01:18:09;;;;;;;8.90;8.00;;;10.60;99.90;;;;;;5073794;28;20209;-69
2021/12/25 01:20:58;;;;;;;8.98;8.07;;;10.60;99.90;;;;;;5073904;28;20199;-69
2021/12/25 01:26:33;;;;;;;12.85;9.10;;;10.40;99.90;;;;;;5073176;28;20587;-68
2021/12/25 01:29:23;;;;;;;8.90;8.00;;;10.10;99.90;;;;;;5073910;28;20237;-68
2021/12/25 01:32:09;;;;;;;10.00;9.00;;;10.20;99.90;;;;;;5073789;28;20202;-68
2021/12/25 01:35:00;;;;;;;13.52;10.10;;;10.20;99.90;;;;;;5073700;28;20558;-68
2021/12/25 01:37:38;;;;;;;12.13;10.88;;;10.20;99.90;;;;;;5073465;28;20676;-68
2021/12/25 01:40:22;;;;;;;13.20;11.85;;;10.10;99.90;;;;;;5073536;28;20214;-68
2021/12/25 01:48:21;;;;;;;12.30;10.80;;;9.80;99.90;;;;;;5073618;28;20606;-68
2021/12/25 01:50:48;;;;;;;13.07;11.57;;;9.90;99.90;;;;;;5073988;28;20203;-68
2021/12/25 01:53:16;;;;;;;13.25;11.85;;;10.00;99.90;;;;;;5073820;28;20293;-69
2021/12/25 01:55:43;;;;;;;15.10;13.40;;;9.90;99.90;;;;;;5073763;28;20222;-68
2021/12/25 01:58:11;;;;;;;13.30;11.55;;;9.80;99.90;;;;;;5073903;28;20230;-69
2021/12/25 02:00:41;;;;;;;12.73;11.35;;;9.90;99.90;;;;;;5073813;28;20209;-69
2021/12/25 02:03:12;;;;;;;14.90;12.55;;;10.00;99.90;;;;;;5073697;28;20227;-69
2021/12/25 02:05:39;;;;;;;13.05;11.43;;;9.90;99.90;;;;;;5073597;28;20233;-69
2021/12/25 02:08:07;;;;;;;12.93;11.48;;;9.90;99.90;;;;;;5074550;28;20681;-68
2021/12/25 02:10:35;;;;;;;11.57;10.35;;;10.00;99.90;;;;;;5074396;28;20209;-68
2021/12/25 02:13:03;;;;;;;11.43;10.18;;;10.00;99.90;;;;;;5073432;28;20289;-69
2021/12/25 02:15:31;;;;;;;12.35;10.85;;;10.10;99.90;;;;;;5073386;28;20704;-68
2021/12/25 02:18:08;;;;;;;12.27;11.05;;;10.00;99.90;;;;;;5074307;28;20230;-69
2021/12/25 02:20:45;;;;;;;12.13;10.55;;;9.90;99.90;;;;;;5073905;28;20206;-69
2021/12/25 02:23:15;;;;;;;12.98;10.50;;;9.90;99.90;;;;;;5073317;28;20280;-69
2021/12/25 02:25:42;;;;;;;14.25;11.98;;;10.00;99.90;;;;;;5073294;28;20627;-69
2021/12/25 02:28:12;;;;;;;15.60;10.80;;;10.10;99.90;;;;;;5073457;28;20638;-69
2021/12/25 02:30:39;;;;;;;11.23;9.98;;;10.10;99.90;;;;;;5073099;28;20207;-69
2021/12/25 02:33:09;;;;;;;13.07;11.13;;;10.10;99.90;;;;;;5073150;28;20261;-69
2021/12/25 02:35:38;;;;;;;14.38;11.32;;;10.10;99.90;;;;;;5073234;28;20222;-68
2021/12/25 02:38:05;;;;;;;15.18;12.00;;;10.00;99.90;;;;;;5074829;28;20665;-68
2021/12/25 02:40:32;;;;;;;13.95;12.10;;;9.90;99.90;;;;;;5076309;28;20206;-68
2021/12/25 02:43:00;;;;;;;16.60;13.75;;;9.80;99.90;;;;;;5076484;28;20268;-68
2021/12/25 02:45:27;;;;;;;21.90;15.18;;;9.60;99.90;;;;;;5076414;28;20225;-68
2021/12/25 02:47:55;;;;;;;19.70;15.82;;;9.50;99.90;;;;;;5076635;28;20202;-68
2021/12/25 02:50:24;;;;;;;21.73;15.77;;;9.40;99.90;;;;;;5076760;28;20690;-68
2021/12/25 02:52:53;;;;;;;19.85;14.50;;;9.40;99.90;;;;;;5077882;28;20199;-69
2021/12/25 02:55:20;;;;;;;21.20;17.52;;;9.30;99.90;;;;;;5077599;28;20592;-69
2021/12/25 02:57:50;;;;;;;20.08;17.23;;;9.20;99.90;;;;;;5077802;28;20207;-69
2021/12/25 03:00:18;;;;;;;21.42;16.50;;;9.10;99.90;;;;;;5077960;28;20214;-69
2021/12/25 03:02:45;;;;;;;21.83;15.57;;;9.10;99.90;;;;;;5078322;28;20254;-69
2021/12/25 03:05:13;;;;;;;21.35;16.08;;;9.10;99.90;;;;;;5078119;28;20574;-68
2021/12/25 03:07:40;;;;;;;17.75;13.75;;;9.20;99.90;;;;;;5077470;28;20728;-68
2021/12/25 03:10:09;;;;;;;20.55;15.68;;;9.30;99.90;;;;;;5077305;28;20199;-69
2021/12/25 03:12:47;;;;;;;18.80;14.30;;;9.30;99.90;;;;;;5077169;28;20199;-69
2021/12/25 03:15:17;;;;;;;15.93;13.80;;;9.40;99.90;;;;;;5076510;28;20712;-69
2021/12/25 03:17:45;;;;;;;15.98;13.38;;;9.50;99.90;;;;;;5076770;28;20236;-68
2021/12/25 03:20:12;;;;;;;16.48;13.70;;;9.70;99.90;;;;;;5076366;28;20573;-68
2021/12/25 03:22:40;;;;;;;18.92;14.43;;;9.70;99.90;;;;;;5076563;28;20313;-69
2021/12/25 03:25:10;;;;;;;16.52;13.23;;;9.90;99.90;;;;;;5076186;28;20233;-68
2021/12/25 03:27:37;;;;;;;17.70;13.10;;;9.90;99.90;;;;;;5076366;28;20213;-69
2021/12/25 03:30:05;;;;;;;15.32;12.50;;;9.90;99.90;;;;;;5076399;28;20206;-69
2021/12/25 03:32:32;;;;;;;12.65;10.57;;;10.00;99.90;;;;;;5076467;28;20218;-69
2021/12/25 03:34:59;;;;;;;14.07;11.07;;;10.00;99.90;;;;;;5076045;28;20266;-68
2021/12/25 03:37:25;;;;;;;6.78;6.07;;;10.00;99.90;;;;;;5076159;28;20199;-69
2021/12/25 03:39:54;;;;;;;5.32;4.70;;;9.90;99.90;;;;;;5076266;28;20221;-69
2021/12/25 03:42:22;;;;;;;6.50;5.45;;;9.90;99.90;;;;;;5076514;28;20252;-69
2021/12/25 03:44:49;;;;;;;7.75;6.95;;;9.90;99.90;;;;;;5076107;28;20317;-69
2021/12/25 03:47:25;;;;;;;6.80;6.10;;;9.90;99.90;;;;;;5076207;28;20209;-69
2021/12/25 03:58:12;;;;;;;8.82;5.18;;;10.10;99.90;;;;;;5075853;28;20247;-69
2021/12/25 04:00:41;;;;;;;6.70;4.60;;;10.10;99.90;;;;;;5075730;28;20207;-69
2021/12/25 04:03:16;;;;;;;4.25;3.85;;;10.10;99.90;;;;;;5075402;28;20317;-69
2021/12/25 04:05:45;;;;;;;3.60;3.30;;;10.10;99.90;;;;;;5075704;28;20646;-68
2021/12/25 04:08:15;;;;;;;3.78;3.40;;;10.10;99.90;;;;;;5075996;28;20245;-69
2021/12/25 04:10:44;;;;;;;3.33;3.03;;;10.10;99.90;;;;;;5076253;28;20187;-69
2021/12/25 04:13:14;;;;;;;3.45;3.10;;;10.10;99.90;;;;;;5075829;28;20281;-69
2021/12/25 04:15:41;;;;;;;3.20;2.90;;;10.10;99.90;;;;;;5075857;28;20227;-69
2021/12/25 04:18:08;;;;;;;2.47;2.28;;;10.10;99.90;;;;;;5075231;28;20203;-69
2021/12/25 04:20:36;;;;;;;2.65;2.45;;;10.20;99.90;;;;;;5075562;28;20205;-69
2021/12/25 04:23:07;;;;;;;4.25;2.75;;;10.20;99.90;;;;;;5075191;28;20261;-69
2021/12/25 04:25:36;;;;;;;3.28;2.33;;;10.20;99.90;;;;;;5074521;28;20219;-68
2021/12/25 04:28:11;;;;;;;2.38;2.10;;;10.30;99.90;;;;;;5074984;28;20202;-69
2021/12/25 04:30:58;;;;;;;2.03;1.83;;;10.30;99.90;;;;;;5074927;28;20206;-69
2021/12/25 05:01:40;;;;;;;1.55;1.45;;;10.40;99.90;;;;;;5074336;28;20206;-69
2021/12/25 05:01:48;;;;;;;1.38;1.27;;;10.40;99.90;;;;;;5074281;28;20313;-69
2021/12/25 05:04:21;;;;;;;1.60;1.30;;;10.40;99.90;;;;;;5074917;28;20225;-69
2021/12/25 05:06:49;;;;;;;3.58;1.70;;;10.30;99.90;;;;;;5074664;28;20657;-69
2021/12/25 05:09:16;;;;;;;2.90;2.70;;;10.20;99.90;;;;;;5074876;28;20230;-69
2021/12/25 05:11:43;;;;;;;3.47;3.17;;;10.10;99.90;;;;;;5074562;28;20277;-69
2021/12/25 05:14:10;;;;;;;5.93;3.53;;;10.10;99.90;;;;;;5074736;28;20213;-69
2021/12/25 05:16:37;;;;;;;3.40;3.10;;;9.90;99.90;;;;;;5074606;28;20198;-69
2021/12/25 05:19:04;;;;;;;3.80;3.40;;;9.90;99.90;;;;;;5074754;28;20257;-69
2021/12/25 05:21:32;;;;;;;3.55;3.25;;;9.90;99.90;;;;;;5074957;28;20213;-69
2021/12/25 05:23:59;;;;;;;3.20;2.90;;;9.90;99.90;;;;;;5074470;28;20590;-70
2021/12/25 05:26:26;;;;;;;2.55;2.30;;;9.90;99.90;;;;;;5074583;28;20566;-69
2021/12/25 05:28:59;;;;;;;2.63;2.40;;;10.00;99.90;;;;;;5074897;28;20293;-69
2021/12/25 05:31:27;;;;;;;2.90;2.47;;;10.00;99.90;;;;;;5075179;28;20210;-69
2021/12/25 05:33:57;;;;;;;2.30;2.10;;;10.10;99.90;;;;;;5075148;28;20683;-69
2021/12/25 05:36:26;;;;;;;3.80;2.50;;;10.20;99.90;;;;;;5074183;28;20585;-69
2021/12/25 05:38:56;;;;;;;3.45;2.83;;;10.20;99.90;;;;;;5073876;28;20288;-70
2021/12/25 05:41:23;;;;;;;2.95;2.75;;;10.20;99.90;;;;;;5074417;28;20566;-69
2021/12/25 05:43:50;;;;;;;5.18;2.88;;;10.00;99.90;;;;;;5074485;28;20230;-69
2021/12/25 05:46:17;;;;;;;3.00;2.70;;;9.90;99.90;;;;;;5074654;28;20334;-69
2021/12/25 05:48:45;;;;;;;3.30;3.10;;;9.90;99.90;;;;;;5075286;28;20618;-69
2021/12/25 05:51:13;;;;;;;6.28;5.68;;;9.90;99.90;;;;;;5075122;28;20199;-69
2021/12/25 05:53:40;;;;;;;6.82;6.13;;;9.80;99.90;;;;;;5075475;28;20198;-69
2021/12/25 05:56:08;;;;;;;6.75;6.05;;;9.80;99.90;;;;;;5074610;28;20222;-69
2021/12/25 05:58:35;;;;;;;8.63;6.43;;;9.70;99.90;;;;;;5075160;28;20199;-69
2021/12/25 06:01:03;;;;;;;8.90;6.28;;;9.70;99.90;;;;;;5074676;28;20203;-69
2021/12/25 06:03:30;;;;;;;6.32;5.72;;;9.70;99.90;;;;;;5074674;28;20241;-69
2021/12/25 06:05:57;;;;;;;6.78;6.07;;;9.70;99.90;;;;;;5074841;28;20309;-69
2021/12/25 06:08:24;;;;;;;6.13;5.53;;;9.60;99.90;;;;;;5074825;28;20404;-69
2021/12/25 06:10:51;;;;;;;7.90;5.50;;;9.60;99.90;;;;;;5075018;28;20566;-69
2021/12/25 06:13:22;;;;;;;6.22;5.63;;;9.70;99.90;;;;;;5076760;28;20205;-69
2021/12/25 06:15:51;;;;;;;8.20;7.03;;;9.70;99.90;;;;;;5078594;28;20261;-69
2021/12/25 06:18:18;;;;;;;8.40;6.18;;;9.70;99.90;;;;;;5079023;28;20199;-69
2021/12/25 06:20:45;;;;;;;7.45;6.57;;;9.70;99.90;;;;;;5078400;28;20562;-69
2021/12/25 06:23:12;;;;;;;9.23;7.15;;;9.70;99.90;;;;;;5078544;28;20199;-69
2021/12/25 06:25:39;;;;;;;8.50;6.80;;;9.70;99.90;;;;;;5078055;28;20317;-69
2021/12/25 06:28:06;;;;;;;9.32;7.88;;;9.70;99.90;;;;;;5078073;28;20206;-69
2021/12/25 06:30:35;;;;;;;9.50;7.40;;;9.70;99.90;;;;;;5078262;28;20352;-69
2021/12/25 06:33:02;;;;;;;10.25;8.35;;;9.70;99.90;;;;;;5078515;28;20207;-69
2021/12/25 06:35:29;;;;;;;8.52;7.63;;;9.60;99.90;;;;;;5078459;28;20283;-68
2021/12/25 06:37:56;;;;;;;9.00;7.45;;;9.60;99.90;;;;;;5078185;28;20209;-69
2021/12/25 06:40:22;;;;;;;11.48;8.95;;;9.70;99.90;;;;;;5077774;28;20764;-69
2021/12/25 06:42:50;;;;;;;10.15;8.82;;;9.50;99.90;;;;;;5077790;28;20211;-69
2021/12/25 06:45:17;;;;;;;12.63;8.80;;;9.50;99.90;;;;;;5077071;28;20265;-69
2021/12/25 06:47:45;;;;;;;11.02;8.95;;;9.40;99.90;;;;;;5077648;28;20198;-69
2021/12/25 06:50:12;;;;;;;11.65;9.52;;;9.40;99.90;;;;;;5077486;28;20208;-69
2021/12/25 06:52:41;;;;;;;10.57;8.75;;;9.40;99.90;;;;;;5077538;28;20209;-69
2021/12/25 06:55:09;;;;;;;12.38;8.98;;;9.40;99.90;;;;;;5077430;28;20215;-69
2021/12/25 06:57:43;;;;;;;11.13;8.90;;;9.40;99.90;;;;;;5076998;28;20213;-69
2021/12/25 07:00:11;;;;;;;10.88;9.20;;;9.40;99.90;;;;;;5076809;28;20208;-69
2021/12/25 07:02:38;;;;;;;10.27;9.13;;;9.40;99.90;;;;;;5077439;28;20657;-69
2021/12/25 07:05:07;;;;;;;11.02;9.15;;;9.50;99.90;;;;;;5077141;28;20233;-69
2021/12/25 07:07:34;;;;;;;10.68;7.88;;;9.50;99.90;;;;;;5077551;28;20225;-70
2021/12/25 07:10:01;;;;;;;11.75;8.60;;;9.60;99.90;;;;;;5077353;28;20591;-69
2021/12/25 07:12:31;;;;;;;10.80;8.40;;;9.70;99.90;;;;;;5077698;28;20569;-69
2021/12/25 07:14:58;;;;;;;9.55;7.78;;;9.70;99.90;;;;;;5077235;28;20215;-70
2021/12/25 07:17:25;;;;;;;9.13;7.22;;;9.80;99.90;;;;;;5077418;28;20368;-69
2021/12/25 07:19:51;;;;;;;9.80;7.70;;;9.90;99.90;;;;;;5077591;28;20203;-69
2021/12/25 07:22:20;;;;;;;7.18;6.30;;;10.00;99.90;;;;;;5077325;28;20672;-69
2021/12/25 07:24:46;;;;;;;11.40;8.30;;;10.10;99.90;;;;;;5076265;28;20226;-69
2021/12/25 07:27:13;;;;;;;7.70;6.70;;;10.10;99.90;;;;;;5076563;28;20210;-69
2021/12/25 07:29:40;;;;;;;8.35;7.10;;;10.20;99.90;;;;;;5076574;28;20572;-69
2021/12/25 07:32:08;;;;;;;8.00;7.13;;;10.20;99.90;;;;;;5076044;28;20205;-69
2021/12/25 07:34:36;;;;;;;7.50;6.68;;;10.30;99.90;;;;;;5075778;28;20215;-69
2021/12/25 07:37:03;;;;;;;8.30;6.45;;;10.30;99.90;;;;;;5076117;28;20230;-69
2021/12/25 07:39:32;;;;;;;7.82;6.40;;;10.40;99.90;;;;;;5075908;28;20218;-69
2021/12/25 07:42:01;;;;;;;8.65;6.25;;;10.40;99.90;;;;;;5076831;28;20293;-69
2021/12/25 07:44:31;;;;;;;19.65;13.80;;;10.40;99.90;;;;;;5076351;28;20289;-69
2021/12/25 07:47:00;;;;;;;7.43;5.63;;;10.40;99.90;;;;;;5076053;28;20207;-69
2021/12/25 07:49:27;;;;;;;6.72;5.82;;;10.40;99.90;;;;;;5076271;28;20213;-69
2021/12/25 07:51:54;;;;;;;5.85;5.28;;;10.40;99.90;;;;;;5075973;28;20253;-69
2021/12/25 07:54:23;;;;;;;7.95;6.13;;;10.40;99.90;;;;;;5076976;28;20245;-70
2021/12/25 07:56:51;;;;;;;7.38;6.20;;;10.40;99.90;;;;;;5076488;28;20217;-70
2021/12/25 07:59:19;;;;;;;7.60;6.50;;;10.30;99.90;;;;;;5076846;28;20293;-69
2021/12/25 08:01:46;;;;;;;6.53;5.68;;;10.30;99.90;;;;;;5077355;28;20207;-70
2021/12/25 08:04:13;;;;;;;7.32;6.35;;;10.30;99.90;;;;;;5076497;28;20229;-69
2021/12/25 08:06:41;;;;;;;7.15;6.45;;;10.30;99.90;;;;;;5076090;28;20297;-69
2021/12/25 08:09:08;;;;;;;6.95;6.25;;;10.30;99.90;;;;;;5076353;28;20832;-69
2021/12/25 08:11:36;;;;;;;6.88;5.95;;;10.40;99.90;;;;;;5075852;28;20730;-69
2021/12/25 08:14:04;;;;;;;8.85;7.95;;;10.40;99.90;;;;;;5075372;28;20530;-69
2021/12/25 08:16:31;;;;;;;8.30;7.10;;;10.40;99.90;;;;;;5075218;28;20298;-69
2021/12/25 08:18:58;;;;;;;6.38;5.78;;;10.30;99.90;;;;;;5075511;28;20213;-69
2021/12/25 08:21:28;;;;;;;6.70;6.10;;;10.40;99.90;;;;;;5075310;28;20213;-69
2021/12/25 08:23:55;;;;;;;10.32;6.13;;;10.40;99.90;;;;;;5075417;28;20199;-70
2021/12/25 08:26:22;;;;;;;7.65;6.03;;;10.40;99.90;;;;;;5075232;28;20225;-69
2021/12/25 08:28:48;;;;;;;7.20;6.35;;;10.40;99.90;;;;;;5075010;28;20621;-69
2021/12/25 08:31:17;;;;;;;7.55;6.10;;;10.50;99.90;;;;;;5074868;28;20206;-69
2021/12/25 08:33:43;;;;;;;7.07;5.55;;;10.50;99.90;;;;;;5074736;28;20297;-69
2021/12/25 08:36:10;;;;;;;6.57;5.10;;;10.40;99.90;;;;;;5073818;28;20242;-70
2021/12/25 08:38:37;;;;;;;7.53;6.50;;;10.50;99.90;;;;;;5074139;28;20669;-70
2021/12/25 08:41:04;;;;;;;6.47;5.88;;;10.50;99.90;;;;;;5074500;28;20206;-69
2021/12/25 08:43:35;;;;;;;6.78;5.90;;;10.50;99.90;;;;;;5074405;28;20297;-69
2021/12/25 08:46:10;;;;;;;6.60;5.95;;;10.60;99.90;;;;;;5074241;28;20227;-69
2021/12/25 08:48:39;;;;;;;6.95;6.15;;;10.60;99.90;;;;;;5074401;28;20210;-70
2021/12/25 08:51:06;;;;;;;7.18;5.45;;;10.70;99.90;;;;;;5074282;28;20297;-69
2021/12/25 08:53:33;;;;;;;7.03;6.05;;;10.70;99.90;;;;;;5074550;28;20207;-69
2021/12/25 08:55:59;;;;;;;12.10;5.72;;;10.80;99.90;;;;;;5074190;28;20309;-69
2021/12/25 08:58:27;;;;;;;7.55;6.10;;;10.90;99.90;;;;;;5074639;28;20661;-69
2021/12/25 09:00:56;;;;;;;7.90;6.32;;;10.90;99.90;;;;;;5074783;28;20209;-70
2021/12/25 09:03:25;;;;;;;6.82;5.53;;;11.00;99.90;;;;;;5074271;28;20680;-70
2021/12/25 09:05:54;;;;;;;6.90;5.95;;;11.00;99.90;;;;;;5073943;28;20223;-69
2021/12/25 09:08:21;;;;;;;7.10;6.35;;;10.90;99.90;;;;;;5074563;28;20572;-69
2021/12/25 09:10:48;;;;;;;6.25;5.60;;;11.00;99.90;;;;;;5074181;28;20660;-69
2021/12/25 09:13:15;;;;;;;5.80;5.20;;;11.00;99.90;;;;;;5074357;28;20290;-69
2021/12/25 09:15:42;;;;;;;6.00;5.25;;;11.00;99.90;;;;;;5073805;28;20229;-69
2021/12/25 09:18:08;;;;;;;5.47;4.47;;;11.00;99.90;;;;;;5074013;28;20309;-69
2021/12/25 09:20:36;;;;;;;5.65;4.28;;;11.00;99.90;;;;;;5073982;28;20207;-69
2021/12/25 09:23:05;;;;;;;4.78;4.38;;;11.00;99.90;;;;;;5073871;28;20198;-69
2021/12/25 09:25:32;;;;;;;4.97;4.57;;;10.90;99.90;;;;;;5073684;28;20233;-69
2021/12/25 09:28:00;;;;;;;4.43;4.03;;;11.00;99.90;;;;;;5074339;28;20297;-69
2021/12/25 09:30:27;;;;;;;4.70;4.20;;;10.90;99.90;;;;;;5074139;28;20202;-69
2021/12/25 09:32:54;;;;;;;4.75;4.20;;;10.90;99.90;;;;;;5074172;28;20205;-69
2021/12/25 09:35:21;;;;;;;11.57;9.48;;;10.90;99.90;;;;;;5073597;28;20301;-69
2021/12/25 09:37:50;;;;;;;6.13;5.53;;;10.90;99.90;;;;;;5073786;28;20207;-69
2021/12/25 09:40:18;;;;;;;5.22;4.72;;;10.90;99.90;;;;;;5073751;28;20218;-70
2021/12/25 09:42:45;;;;;;;3.97;3.67;;;10.80;99.90;;;;;;5073830;28;20205;-70
2021/12/25 09:45:14;;;;;;;4.15;3.85;;;10.90;99.90;;;;;;5073290;28;20313;-70
2021/12/25 09:47:42;;;;;;;4.40;3.95;;;10.90;99.90;;;;;;5078380;28;20213;-69
2021/12/25 09:50:09;;;;;;;3.70;3.40;;;11.00;99.90;;;;;;5080206;28;20284;-70
2021/12/25 09:52:36;;;;;;;3.42;3.17;;;11.00;99.90;;;;;;5080255;28;20202;-69
2021/12/25 09:55:04;;;;;;;4.25;3.78;;;11.00;99.90;;;;;;5080266;28;20218;-69
2021/12/25 09:57:32;;;;;;;3.60;3.30;;;11.00;99.90;;;;;;5080386;28;20568;-70
2021/12/25 09:59:59;;;;;;;3.38;3.08;;;11.00;99.90;;;;;;5080324;28;20213;-70
2021/12/25 10:02:27;;;;;;;3.00;2.70;;;11.00;99.90;;;;;;5080383;28;20206;-69
2021/12/25 10:04:57;;;;;;;3.30;3.00;;;11.00;99.90;;;;;;5079772;28;20233;-70
2021/12/25 10:07:27;;;;;;;4.32;4.00;;;11.00;99.90;;;;;;5080439;28;20204;-69
2021/12/25 10:09:56;;;;;;;4.15;3.58;;;10.90;99.90;;;;;;5080035;28;20203;-69
2021/12/25 10:12:29;;;;;;;4.10;3.70;;;11.00;99.90;;;;;;5080197;28;20208;-70
2021/12/25 10:14:57;;;;;;;8.35;6.43;;;11.00;99.90;;;;;;5079721;28;20771;-70
2021/12/25 10:17:26;;;;;;;9.55;7.80;;;11.10;99.90;;;;;;5080128;28;20297;-69
2021/12/25 10:20:09;;;;;;;6.57;4.78;;;11.20;99.90;;;;;;5079997;28;20564;-70
2021/12/25 10:22:55;;;;;;;3.38;2.85;;;11.20;99.90;;;;;;5079979;28;20241;-70
2021/12/25 10:25:21;;;;;;;3.65;3.28;;;11.30;99.90;;;;;;5079585;28;20226;-70
2021/12/25 10:27:51;;;;;;;3.55;2.65;;;11.40;99.90;;;;;;5079847;28;20294;-69
2021/12/25 10:30:19;;;;;;;2.78;2.58;;;11.50;99.90;;;;;;5079942;28;20213;-70
2021/12/25 10:32:47;;;;;;;2.92;2.67;;;11.50;99.90;;;;;;5080183;28;20205;-70
2021/12/25 10:35:17;;;;;;;3.13;2.90;;;11.50;99.90;;;;;;5079537;28;20229;-70
2021/12/25 10:37:45;;;;;;;3.05;2.70;;;11.60;99.90;;;;;;5080010;28;20203;-70
2021/12/25 10:40:26;;;;;;;2.85;2.65;;;11.60;99.90;;;;;;5079818;28;20207;-70
2021/12/25 10:42:53;;;;;;;2.80;2.40;;;11.70;99.90;;;;;;5079976;28;20649;-70
2021/12/25 10:45:24;;;;;;;2.33;2.13;;;11.70;99.90;;;;;;5079965;28;20313;-70
2021/12/25 10:48:04;;;;;;;2.20;2.10;;;11.70;99.90;;;;;;5079865;28;20210;-70
2021/12/25 10:50:36;;;;;;;3.20;2.90;;;11.70;99.90;;;;;;5079988;28;20203;-70
2021/12/25 10:53:21;;;;;;;2.35;2.10;;;11.70;99.90;;;;;;5079952;28;20199;-70
2021/12/25 10:55:48;;;;;;;2.30;2.10;;;11.60;99.90;;;;;;5079416;28;20735;-70
2021/12/25 10:58:19;;;;;;;2.10;2.00;;;11.70;99.90;;;;;;5077667;28;20679;-70
2021/12/25 11:00:54;;;;;;;2.60;2.40;;;11.80;99.90;;;;;;5076107;28;20716;-69
2021/12/25 11:03:33;;;;;;;2.22;2.03;;;11.90;99.90;;;;;;5076500;28;20205;-70
2021/12/25 11:06:08;;;;;;;2.30;2.10;;;12.00;99.90;;;;;;5076040;28;20230;-70
2021/12/25 11:08:35;;;;;;;2.88;2.67;;;12.10;99.90;;;;;;5076375;28;20198;-70
2021/12/25 11:11:06;;;;;;;4.43;3.13;;;12.10;99.90;;;;;;5076480;28;20203;-70
2021/12/25 11:13:36;;;;;;;2.58;2.38;;;12.20;99.90;;;;;;5077170;28;20203;-70
2021/12/25 11:16:22;;;;;;;2.90;2.70;;;12.30;99.90;;;;;;5077021;28;20583;-70
2021/12/25 11:19:04;;;;;;;2.75;2.45;;;12.30;99.90;;;;;;5076413;28;20213;-70
2021/12/25 11:21:34;;;;;;;2.58;2.38;;;12.20;99.90;;;;;;5076148;28;20242;-70
2021/12/25 11:24:12;;;;;;;2.58;2.40;;;12.10;99.90;;;;;;5076683;28;20302;-70
2021/12/25 11:26:39;;;;;;;2.97;2.75;;;12.20;99.90;;;;;;5075875;28;20252;-70
2021/12/25 11:29:09;;;;;;;2.03;1.80;;;12.20;99.90;;;;;;5076095;28;20205;-69
2021/12/25 11:31:40;;;;;;;3.40;3.10;;;12.00;99.90;;;;;;5076180;28;20665;-70
2021/12/25 11:34:08;;;;;;;2.58;2.38;;;12.10;99.90;;;;;;5076071;28;20550;-69
2021/12/25 11:36:38;;;;;;;3.40;2.30;;;12.10;99.90;;;;;;5075671;28;20661;-70
2021/12/25 11:39:06;;;;;;;1.80;1.70;;;12.20;99.90;;;;;;5075709;28;20219;-70
2021/12/25 11:41:35;;;;;;;1.90;1.70;;;12.10;99.90;;;;;;5075887;28;20206;-70
2021/12/25 11:44:06;;;;;;;1.90;1.80;;;11.90;99.90;;;;;;5060840;28;20269;-70
2021/12/25 11:46:41;;;;;;;2.97;2.10;;;11.90;99.90;;;;;;5075045;28;20602;-70
2021/12/25 11:49:11;;;;;;;2.47;2.28;;;11.90;99.90;;;;;;5075303;28;20627;-70
2021/12/25 11:51:40;;;;;;;2.20;2.00;;;12.00;99.90;;;;;;5075341;28;20202;-70
2021/12/25 11:54:29;;;;;;;2.20;2.10;;;11.90;99.90;;;;;;5074764;28;20228;-70
2021/12/25 11:57:12;;;;;;;2.55;1.85;;;11.90;99.90;;;;;;5074613;28;20209;-70
2021/12/25 11:59:45;;;;;;;2.10;1.70;;;11.90;99.90;;;;;;5074962;28;20199;-70
2021/12/25 12:02:33;;;;;;;2.30;2.10;;;12.00;99.90;;;;;;5074427;28;20188;-69
2021/12/25 12:05:19;;;;;;;1.40;1.30;;;12.00;99.90;;;;;;5074045;28;20229;-69
2021/12/25 12:08:02;;;;;;;2.55;1.80;;;12.00;99.90;;;;;;5074512;28;20217;-69
2021/12/25 12:10:52;;;;;;;2.22;2.03;;;12.10;99.90;;;;;;5073012;28;20202;-69
2021/12/25 12:13:22;;;;;;;2.95;2.70;;;12.10;99.90;;;;;;5074900;28;20213;-69
2021/12/25 12:15:50;;;;;;;2.83;2.10;;;12.20;99.90;;;;;;5074053;28;20223;-69
2021/12/25 12:18:40;;;;;;;2.08;1.90;;;12.20;99.90;;;;;;5074085;28;20213;-68
2021/12/25 12:21:35;;;;;;;2.70;2.50;;;12.10;99.90;;;;;;5073770;28;20203;-69
2021/12/25 12:24:28;;;;;;;2.17;2.08;;;12.00;99.90;;;;;;5074239;28;20206;-69
2021/12/25 12:26:55;;;;;;;2.10;1.90;;;12.00;99.90;;;;;;5073412;28;20223;-68
2021/12/25 12:29:42;;;;;;;2.92;2.20;;;12.00;99.90;;;;;;5073353;28;20214;-67
2021/12/25 12:32:37;;;;;;;4.20;2.40;;;12.00;99.90;;;;;;5073584;28;20218;-68
2021/12/25 12:35:26;;;;;;;3.80;3.38;;;11.90;99.90;;;;;;5073117;28;20317;-68
2021/12/25 12:37:54;;;;;;;3.50;3.08;;;11.90;99.90;;;;;;5073143;28;20206;-69
2021/12/25 12:40:27;;;;;;;2.58;2.10;;;11.90;99.90;;;;;;5072969;28;20691;-69
2021/12/25 12:43:00;;;;;;;2.58;2.38;;;11.90;99.90;;;;;;5073621;28;20195;-69
2021/12/25 12:45:30;;;;;;;3.33;2.75;;;11.90;99.90;;;;;;5073101;28;20223;-69
2021/12/25 12:48:19;;;;;;;5.05;3.60;;;12.00;99.90;;;;;;5072894;28;20661;-68
2021/12/25 12:50:51;;;;;;;2.88;2.47;;;11.90;99.90;;;;;;5073006;28;20283;-68
2021/12/25 12:53:21;;;;;;;3.22;2.40;;;11.70;99.90;;;;;;5073346;28;20194;-68
2021/12/25 12:55:49;;;;;;;2.42;2.22;;;11.70;99.90;;;;;;5073067;28;20219;-68
2021/12/25 12:58:20;;;;;;;3.20;3.00;;;11.60;99.90;;;;;;5073043;28;20207;-68
2021/12/25 13:00:55;;;;;;;2.55;2.20;;;11.60;99.90;;;;;;5072824;28;20238;-68
2021/12/25 13:03:23;;;;;;;6.25;2.97;;;11.70;99.90;;;;;;5073485;28;20186;-68
2021/12/25 13:05:55;;;;;;;3.08;2.50;;;11.70;99.90;;;;;;5072349;28;20237;-69
2021/12/25 13:08:25;;;;;;;2.90;2.70;;;11.60;99.90;;;;;;5072791;28;20191;-68
2021/12/25 13:11:01;;;;;;;3.58;3.28;;;11.50;99.90;;;;;;5072924;28;20187;-69
2021/12/25 13:13:34;;;;;;;4.95;4.45;;;11.60;99.90;;;;;;5073316;28;20186;-68
2021/12/25 13:16:06;;;;;;;4.95;4.45;;;11.50;99.90;;;;;;5073168;28;20254;-68
2021/12/25 13:18:36;;;;;;;4.10;3.80;;;11.50;99.90;;;;;;5072715;28;20187;-68
2021/12/25 13:21:08;;;;;;;4.80;3.15;;;11.50;99.90;;;;;;5072552;28;20199;-68
2021/12/25 13:23:46;;;;;;;4.20;3.75;;;11.50;99.90;;;;;;5072916;28;20526;-69
2021/12/25 13:26:14;;;;;;;4.22;3.92;;;11.50;99.90;;;;;;5072892;28;20325;-68
2021/12/25 13:28:43;;;;;;;4.22;3.83;;;11.40;99.90;;;;;;5072508;28;20210;-68
2021/12/25 13:31:12;;;;;;;3.85;3.55;;;11.30;99.90;;;;;;5072326;28;20216;-68
2021/12/25 13:33:45;;;;;;;4.50;4.07;;;11.20;99.90;;;;;;5073776;28;20198;-68
2021/12/25 13:36:14;;;;;;;4.65;4.20;;;11.00;99.90;;;;;;5072352;28;20229;-68
2021/12/25 13:38:47;;;;;;;4.50;4.10;;;10.80;99.90;;;;;;5072739;28;20306;-68
2021/12/25 13:41:14;;;;;;;4.35;3.95;;;10.70;99.90;;;;;;5073142;28;20199;-68
2021/12/25 13:43:41;;;;;;;4.72;4.32;;;10.60;99.90;;;;;;5072659;28;20202;-68